Heron — WDG2159 — position and weather

sailwx.info

Track history (hours):
 
Tides and Currents Weather Stations Pressure Air Temp Water Temp Dewpoint Dewpoint Depression Visibility Wind Speed Wind Dir Waves Ship Positions

Heron

Owner: Davies, Sanders, Norwalk, CT. More information available from US FCC via Universal Licensing System and Coast Guard Vessel Documentation Center.

Last reported at 2015-Jul-13 14:33 UTC. Time now 2015-Sep-04 23:11 UTC.
Position N 41°35' W 070°31'.
Warning: this ship's position is 53 days out of date.

Length 14 m.

Type: Sailing vessel. MMSI: 367512760.

Date/timePositionNaut miles runAvg speedWind from/ knotsBaromVisibWave heightAir tempDewpointWater temp
2015-Jul-13 14:33N 41°35' W 070°31'4 3.9
2015-Jul-13 13:32N 41°32' W 070°35'1 0.7
2015-Jul-13 12:32N 41°33' W 070°36'5 4.7
2015-Jul-13 11:33N 41°28' W 070°35'1 0.1
2015-Jul-12 18:33N 41°29' W 070°36'6 5.7
2015-Jul-12 17:33N 41°28' W 070°43'5 5.0
2015-Jul-12 16:33N 41°26' W 070°49'4 4.4
2015-Jul-12 15:33N 41°25' W 070°55'0 0.0
2015-Jul-11 19:31N 41°26' W 070°55'0 0.0
2015-Jul-11 18:31N 41°26' W 070°55'  
Track history (hours):
 
Tides and Currents Weather Stations Pressure Air Temp Water Temp Dewpoint Dewpoint Depression Visibility Wind Speed Wind Dir Waves Ship Positions

Heron

Owner: Davies, Sanders, Norwalk, CT. More information available from US FCC via Universal Licensing System and Coast Guard Vessel Documentation Center.

Last reported at 2015-Jul-13 14:33 UTC. Time now 2015-Sep-04 23:11 UTC.
Position N 41°35' W 070°31'.
Warning: this ship's position is 53 days out of date.

Length 14 m.

Type: Sailing vessel. MMSI: 367512760.

Date/timePositionNaut miles runAvg speedWind from/ knotsBaromVisibWave heightAir tempDewpointWater temp
2015-Jul-13 14:33N 41°35' W 070°31'4 3.9
2015-Jul-13 13:32N 41°32' W 070°35'1 0.7
2015-Jul-13 12:32N 41°33' W 070°36'5 4.7
2015-Jul-13 11:33N 41°28' W 070°35'1 0.1
2015-Jul-12 18:33N 41°29' W 070°36'6 5.7
2015-Jul-12 17:33N 41°28' W 070°43'5 5.0
2015-Jul-12 16:33N 41°26' W 070°49'4 4.4
2015-Jul-12 15:33N 41°25' W 070°55'0 0.0
2015-Jul-11 19:31N 41°26' W 070°55'0 0.0
2015-Jul-11 18:31N 41°26' W 070°55'  

Dump ship's entire track history